sensor_id;sensor_type;location;lat;lon;timestamp;pressure;altitude;pressure_sealevel;temperature;humidity
76819;BME280;65772;51.096;17.006;2022-12-10T00:00:55;99255.95;;;4.46;66.61
76819;BME280;65772;51.096;17.006;2022-12-10T00:03:33;99257.77;;;4.44;66.82
76819;BME280;65772;51.096;17.006;2022-12-10T00:06:05;99258.70;;;4.42;66.74
76819;BME280;65772;51.096;17.006;2022-12-10T00:08:34;99255.45;;;4.40;66.79
76819;BME280;65772;51.096;17.006;2022-12-10T00:11:06;99251.51;;;4.39;66.83
76819;BME280;65772;51.096;17.006;2022-12-10T00:13:38;99249.23;;;4.37;66.73
76819;BME280;65772;51.096;17.006;2022-12-10T00:16:11;99253.89;;;4.35;66.86
76819;BME280;65772;51.096;17.006;2022-12-10T00:18:43;99248.73;;;4.33;66.66
76819;BME280;65772;51.096;17.006;2022-12-10T00:21:17;99251.96;;;4.28;66.70
76819;BME280;65772;51.096;17.006;2022-12-10T00:23:48;99254.19;;;4.25;66.84
76819;BME280;65772;51.096;17.006;2022-12-10T00:26:20;99253.80;;;4.23;66.84
76819;BME280;65772;51.096;17.006;2022-12-10T00:28:52;99250.19;;;4.21;67.08
76819;BME280;65772;51.096;17.006;2022-12-10T00:31:24;99248.96;;;4.20;66.74
76819;BME280;65772;51.096;17.006;2022-12-10T00:33:57;99248.90;;;4.19;66.87
76819;BME280;65772;51.096;17.006;2022-12-10T00:36:27;99244.59;;;4.17;67.01
76819;BME280;65772;51.096;17.006;2022-12-10T00:38:58;99244.43;;;4.12;67.20
76819;BME280;65772;51.096;17.006;2022-12-10T00:41:29;99246.54;;;4.10;67.26
76819;BME280;65772;51.096;17.006;2022-12-10T00:44:00;99242.83;;;4.10;67.37
76819;BME280;65772;51.096;17.006;2022-12-10T00:46:31;99245.30;;;4.17;67.27
76819;BME280;65772;51.096;17.006;2022-12-10T00:49:03;99245.97;;;4.21;67.08
76819;BME280;65772;51.096;17.006;2022-12-10T00:51:33;99244.60;;;4.26;67.23
76819;BME280;65772;51.096;17.006;2022-12-10T00:54:04;99243.11;;;4.31;66.85
76819;BME280;65772;51.096;17.006;2022-12-10T00:56:35;99246.05;;;4.33;67.13
76819;BME280;65772;51.096;17.006;2022-12-10T00:59:06;99246.64;;;4.36;66.98
76819;BME280;65772;51.096;17.006;2022-12-10T01:01:37;99246.56;;;4.38;67.17
76819;BME280;65772;51.096;17.006;2022-12-10T01:04:10;99246.92;;;4.38;66.88
76819;BME280;65772;51.096;17.006;2022-12-10T01:06:44;99249.38;;;4.37;67.11
76819;BME280;65772;51.096;17.006;2022-12-10T01:09:17;99248.50;;;4.36;66.90
76819;BME280;65772;51.096;17.006;2022-12-10T01:11:49;99249.45;;;4.34;66.83
76819;BME280;65772;51.096;17.006;2022-12-10T01:14:22;99250.78;;;4.33;66.87
76819;BME280;65772;51.096;17.006;2022-12-10T01:16:57;99254.39;;;4.30;66.89
76819;BME280;65772;51.096;17.006;2022-12-10T01:19:28;99259.30;;;4.26;66.90
76819;BME280;65772;51.096;17.006;2022-12-10T01:21:59;99261.04;;;4.23;66.83
76819;BME280;65772;51.096;17.006;2022-12-10T01:24:31;99263.77;;;4.19;67.07
76819;BME280;65772;51.096;17.006;2022-12-10T01:27:01;99267.42;;;4.18;66.97
76819;BME280;65772;51.096;17.006;2022-12-10T01:29:31;99263.43;;;4.15;67.10
76819;BME280;65772;51.096;17.006;2022-12-10T01:32:03;99268.97;;;4.13;67.21
76819;BME280;65772;51.096;17.006;2022-12-10T01:34:33;99266.86;;;4.11;67.07
76819;BME280;65772;51.096;17.006;2022-12-10T01:37:04;99267.79;;;4.09;66.96
76819;BME280;65772;51.096;17.006;2022-12-10T01:39:34;99272.32;;;4.08;67.17
76819;BME280;65772;51.096;17.006;2022-12-10T01:42:05;99270.59;;;4.07;66.89
76819;BME280;65772;51.096;17.006;2022-12-10T01:45:00;99267.06;;;4.12;67.04
76819;BME280;65772;51.096;17.006;2022-12-10T01:47:32;99270.17;;;4.15;67.16
76819;BME280;65772;51.096;17.006;2022-12-10T01:50:04;99271.29;;;4.17;67.05
76819;BME280;65772;51.096;17.006;2022-12-10T01:52:39;99269.57;;;4.21;67.18
76819;BME280;65772;51.096;17.006;2022-12-10T01:55:39;99265.05;;;4.21;67.07
76819;BME280;65772;51.096;17.006;2022-12-10T01:58:11;99263.07;;;4.23;67.21
76819;BME280;65772;51.096;17.006;2022-12-10T02:00:48;99257.88;;;4.24;67.21
76819;BME280;65772;51.096;17.006;2022-12-10T02:03:27;99255.71;;;4.25;67.24
76819;BME280;65772;51.096;17.006;2022-12-10T02:06:10;99255.73;;;4.25;67.22
76819;BME280;65772;51.096;17.006;2022-12-10T02:08:54;99253.51;;;4.25;67.22
76819;BME280;65772;51.096;17.006;2022-12-10T02:11:31;99255.13;;;4.22;67.15
76819;BME280;65772;51.096;17.006;2022-12-10T02:14:08;99255.73;;;4.20;67.14
76819;BME280;65772;51.096;17.006;2022-12-10T02:16:44;99253.59;;;4.18;67.21
76819;BME280;65772;51.096;17.006;2022-12-10T02:19:21;99256.16;;;4.15;67.24
76819;BME280;65772;51.096;17.006;2022-12-10T02:21:57;99256.13;;;4.13;66.93
76819;BME280;65772;51.096;17.006;2022-12-10T02:24:32;99256.70;;;4.11;67.21
76819;BME280;65772;51.096;17.006;2022-12-10T02:27:07;99256.08;;;4.08;67.28
76819;BME280;65772;51.096;17.006;2022-12-10T02:29:42;99256.30;;;4.04;67.38
76819;BME280;65772;51.096;17.006;2022-12-10T02:32:17;99258.08;;;4.02;67.31
76819;BME280;65772;51.096;17.006;2022-12-10T02:34:52;99255.45;;;4.00;67.31
76819;BME280;65772;51.096;17.006;2022-12-10T02:37:27;99259.42;;;3.97;67.39
76819;BME280;65772;51.096;17.006;2022-12-10T02:40:03;99266.32;;;3.97;67.48
76819;BME280;65772;51.096;17.006;2022-12-10T02:42:39;99266.36;;;4.03;67.26
76819;BME280;65772;51.096;17.006;2022-12-10T02:45:12;99269.08;;;4.07;67.36
76819;BME280;65772;51.096;17.006;2022-12-10T02:47:42;99270.25;;;4.12;67.48
76819;BME280;65772;51.096;17.006;2022-12-10T02:50:16;99272.91;;;4.15;67.48
76819;BME280;65772;51.096;17.006;2022-12-10T02:52:51;99280.27;;;4.18;67.38
76819;BME280;65772;51.096;17.006;2022-12-10T02:55:21;99278.67;;;4.20;67.44
76819;BME280;65772;51.096;17.006;2022-12-10T02:58:06;99276.38;;;4.21;67.25
76819;BME280;65772;51.096;17.006;2022-12-10T03:00:47;99277.58;;;4.22;67.22
76819;BME280;65772;51.096;17.006;2022-12-10T03:03:30;99277.89;;;4.21;67.29
76819;BME280;65772;51.096;17.006;2022-12-10T03:06:09;99278.75;;;4.22;67.24
76819;BME280;65772;51.096;17.006;2022-12-10T03:08:47;99280.59;;;4.21;67.40
76819;BME280;65772;51.096;17.006;2022-12-10T03:11:20;99280.12;;;4.22;67.33
76819;BME280;65772;51.096;17.006;2022-12-10T03:13:56;99281.48;;;4.23;67.43
76819;BME280;65772;51.096;17.006;2022-12-10T03:16:33;99284.15;;;4.22;67.48
76819;BME280;65772;51.096;17.006;2022-12-10T03:19:07;99286.52;;;4.18;67.28
76819;BME280;65772;51.096;17.006;2022-12-10T03:21:42;99288.08;;;4.14;67.34
76819;BME280;65772;51.096;17.006;2022-12-10T03:24:16;99284.55;;;4.10;67.40
76819;BME280;65772;51.096;17.006;2022-12-10T03:26:49;99289.06;;;4.09;67.33
76819;BME280;65772;51.096;17.006;2022-12-10T03:29:27;99287.07;;;4.06;67.48
76819;BME280;65772;51.096;17.006;2022-12-10T03:31:59;99290.31;;;4.02;67.31
76819;BME280;65772;51.096;17.006;2022-12-10T03:34:31;99294.65;;;4.00;67.37
76819;BME280;65772;51.096;17.006;2022-12-10T03:37:02;99295.54;;;3.97;67.46
76819;BME280;65772;51.096;17.006;2022-12-10T03:39:34;99296.47;;;3.95;67.45
76819;BME280;65772;51.096;17.006;2022-12-10T03:42:05;99294.81;;;4.00;67.43
76819;BME280;65772;51.096;17.006;2022-12-10T03:44:37;99295.65;;;4.05;67.37
76819;BME280;65772;51.096;17.006;2022-12-10T03:47:12;99293.99;;;4.10;67.42
76819;BME280;65772;51.096;17.006;2022-12-10T03:49:43;99290.25;;;4.13;67.42
76819;BME280;65772;51.096;17.006;2022-12-10T03:52:14;99290.61;;;4.14;67.39
76819;BME280;65772;51.096;17.006;2022-12-10T03:54:45;99291.13;;;4.15;67.39
76819;BME280;65772;51.096;17.006;2022-12-10T03:57:16;99290.36;;;4.17;67.31
76819;BME280;65772;51.096;17.006;2022-12-10T03:59:46;99290.93;;;4.18;67.27
76819;BME280;65772;51.096;17.006;2022-12-10T04:02:16;99293.44;;;4.18;67.42
76819;BME280;65772;51.096;17.006;2022-12-10T04:04:47;99292.91;;;4.17;67.44
76819;BME280;65772;51.096;17.006;2022-12-10T04:07:21;99299.11;;;4.16;67.24
76819;BME280;65772;51.096;17.006;2022-12-10T04:09:52;99299.87;;;4.13;67.26
76819;BME280;65772;51.096;17.006;2022-12-10T04:12:22;99301.13;;;4.11;67.21
76819;BME280;65772;51.096;17.006;2022-12-10T04:14:53;99305.07;;;4.08;67.26
76819;BME280;65772;51.096;17.006;2022-12-10T04:17:41;99303.91;;;4.05;67.05
76819;BME280;65772;51.096;17.006;2022-12-10T04:20:12;99304.73;;;4.03;67.17
76819;BME280;65772;51.096;17.006;2022-12-10T04:22:56;99308.43;;;3.98;67.36
76819;BME280;65772;51.096;17.006;2022-12-10T04:25:45;99311.88;;;3.96;67.22
76819;BME280;65772;51.096;17.006;2022-12-10T04:28:33;99308.21;;;3.94;67.09
76819;BME280;65772;51.096;17.006;2022-12-10T04:31:03;99310.52;;;3.92;67.05
76819;BME280;65772;51.096;17.006;2022-12-10T04:33:34;99314.86;;;3.90;67.25
76819;BME280;65772;51.096;17.006;2022-12-10T04:36:05;99318.83;;;3.88;67.20
76819;BME280;65772;51.096;17.006;2022-12-10T04:38:36;99319.60;;;3.86;67.16
76819;BME280;65772;51.096;17.006;2022-12-10T04:41:07;99320.16;;;3.84;67.14
76819;BME280;65772;51.096;17.006;2022-12-10T04:43:44;99315.84;;;3.81;66.97
76819;BME280;65772;51.096;17.006;2022-12-10T04:46:15;99315.64;;;3.80;66.92
76819;BME280;65772;51.096;17.006;2022-12-10T04:48:45;99314.67;;;3.86;67.05
76819;BME280;65772;51.096;17.006;2022-12-10T04:51:16;99320.05;;;3.89;67.14
76819;BME280;65772;51.096;17.006;2022-12-10T04:53:46;99325.99;;;3.90;67.52
76819;BME280;65772;51.096;17.006;2022-12-10T04:56:17;99328.09;;;3.92;67.70
76819;BME280;65772;51.096;17.006;2022-12-10T04:58:47;99334.69;;;3.93;67.53
76819;BME280;65772;51.096;17.006;2022-12-10T05:01:18;99332.97;;;3.96;67.36
76819;BME280;65772;51.096;17.006;2022-12-10T05:03:49;99331.70;;;3.98;67.36
76819;BME280;65772;51.096;17.006;2022-12-10T05:06:20;99329.92;;;3.99;67.13
76819;BME280;65772;51.096;17.006;2022-12-10T05:08:51;99327.24;;;4.01;66.90
76819;BME280;65772;51.096;17.006;2022-12-10T05:11:23;99320.85;;;4.01;67.12
76819;BME280;65772;51.096;17.006;2022-12-10T05:13:53;99322.19;;;4.00;66.90
76819;BME280;65772;51.096;17.006;2022-12-10T05:16:26;99323.09;;;3.98;66.84
76819;BME280;65772;51.096;17.006;2022-12-10T05:18:57;99325.86;;;3.95;66.81
76819;BME280;65772;51.096;17.006;2022-12-10T05:21:30;99328.63;;;3.93;66.84
76819;BME280;65772;51.096;17.006;2022-12-10T05:24:16;99335.27;;;3.90;66.67
76819;BME280;65772;51.096;17.006;2022-12-10T05:26:47;99337.17;;;3.87;66.60
76819;BME280;65772;51.096;17.006;2022-12-10T05:29:20;99343.17;;;3.85;66.54
76819;BME280;65772;51.096;17.006;2022-12-10T05:31:51;99346.30;;;3.83;66.60
76819;BME280;65772;51.096;17.006;2022-12-10T05:34:21;99346.23;;;3.82;66.70
76819;BME280;65772;51.096;17.006;2022-12-10T05:36:55;99343.48;;;3.80;66.61
76819;BME280;65772;51.096;17.006;2022-12-10T05:39:25;99344.89;;;3.78;66.74
76819;BME280;65772;51.096;17.006;2022-12-10T05:41:56;99344.86;;;3.77;66.72
76819;BME280;65772;51.096;17.006;2022-12-10T05:44:26;99349.20;;;3.76;66.62
76819;BME280;65772;51.096;17.006;2022-12-10T05:46:58;99349.95;;;3.73;66.76
76819;BME280;65772;51.096;17.006;2022-12-10T05:49:29;99345.30;;;3.71;66.73
76819;BME280;65772;51.096;17.006;2022-12-10T05:51:59;99346.07;;;3.68;66.67
76819;BME280;65772;51.096;17.006;2022-12-10T05:54:30;99343.77;;;3.75;66.72
76819;BME280;65772;51.096;17.006;2022-12-10T05:57:00;99341.02;;;3.78;66.61
76819;BME280;65772;51.096;17.006;2022-12-10T05:59:30;99338.45;;;3.81;66.60
76819;BME280;65772;51.096;17.006;2022-12-10T06:02:01;99340.65;;;3.85;66.56
76819;BME280;65772;51.096;17.006;2022-12-10T06:04:32;99344.42;;;3.87;66.56
76819;BME280;65772;51.096;17.006;2022-12-10T06:07:02;99342.55;;;3.90;66.50
76819;BME280;65772;51.096;17.006;2022-12-10T06:09:39;99340.27;;;3.93;66.79
76819;BME280;65772;51.096;17.006;2022-12-10T06:12:09;99337.58;;;3.93;66.46
76819;BME280;65772;51.096;17.006;2022-12-10T06:14:40;99336.27;;;3.94;66.47
76819;BME280;65772;51.096;17.006;2022-12-10T06:17:10;99335.73;;;3.93;66.76
76819;BME280;65772;51.096;17.006;2022-12-10T06:19:41;99332.95;;;3.91;66.57
76819;BME280;65772;51.096;17.006;2022-12-10T06:22:11;99333.85;;;3.88;66.55
76819;BME280;65772;51.096;17.006;2022-12-10T06:24:42;99339.70;;;3.87;66.55
76819;BME280;65772;51.096;17.006;2022-12-10T06:27:12;99337.67;;;3.87;66.48
76819;BME280;65772;51.096;17.006;2022-12-10T06:29:43;99335.80;;;3.87;66.46
76819;BME280;65772;51.096;17.006;2022-12-10T06:32:14;99340.03;;;3.87;66.53
76819;BME280;65772;51.096;17.006;2022-12-10T06:34:45;99346.05;;;3.85;66.48
76819;BME280;65772;51.096;17.006;2022-12-10T06:37:15;99346.81;;;3.84;66.59
76819;BME280;65772;51.096;17.006;2022-12-10T06:39:46;99348.79;;;3.82;66.41
76819;BME280;65772;51.096;17.006;2022-12-10T06:42:17;99347.17;;;3.79;66.46
76819;BME280;65772;51.096;17.006;2022-12-10T06:44:48;99346.41;;;3.78;66.66
76819;BME280;65772;51.096;17.006;2022-12-10T06:47:18;99344.63;;;3.75;66.60
76819;BME280;65772;51.096;17.006;2022-12-10T06:49:50;99346.38;;;3.73;66.56
76819;BME280;65772;51.096;17.006;2022-12-10T06:52:20;99347.11;;;3.69;66.60
76819;BME280;65772;51.096;17.006;2022-12-10T06:54:51;99351.73;;;3.66;66.65
76819;BME280;65772;51.096;17.006;2022-12-10T06:57:23;99355.23;;;3.66;66.66
76819;BME280;65772;51.096;17.006;2022-12-10T06:59:56;99359.24;;;3.69;66.74
76819;BME280;65772;51.096;17.006;2022-12-10T07:02:25;99364.60;;;3.77;66.74
76819;BME280;65772;51.096;17.006;2022-12-10T07:04:55;99369.47;;;3.80;66.69
76819;BME280;65772;51.096;17.006;2022-12-10T07:07:26;99371.84;;;3.85;66.73
76819;BME280;65772;51.096;17.006;2022-12-10T07:09:57;99373.30;;;3.87;66.47
76819;BME280;65772;51.096;17.006;2022-12-10T07:12:27;99371.47;;;3.92;66.55
76819;BME280;65772;51.096;17.006;2022-12-10T07:14:58;99373.77;;;3.95;66.57
76819;BME280;65772;51.096;17.006;2022-12-10T07:17:28;99375.82;;;3.95;66.44
76819;BME280;65772;51.096;17.006;2022-12-10T07:19:59;99376.52;;;3.96;66.45
76819;BME280;65772;51.096;17.006;2022-12-10T07:22:29;99378.62;;;3.98;66.38
76819;BME280;65772;51.096;17.006;2022-12-10T07:25:00;99375.14;;;3.99;66.26
76819;BME280;65772;51.096;17.006;2022-12-10T07:27:32;99377.30;;;3.98;66.44
76819;BME280;65772;51.096;17.006;2022-12-10T07:30:03;99375.23;;;3.97;66.41
76819;BME280;65772;51.096;17.006;2022-12-10T07:32:34;99379.20;;;3.95;66.42
76819;BME280;65772;51.096;17.006;2022-12-10T07:35:06;99380.85;;;3.94;66.43
76819;BME280;65772;51.096;17.006;2022-12-10T07:37:37;99380.25;;;3.92;66.29
76819;BME280;65772;51.096;17.006;2022-12-10T07:40:10;99378.95;;;3.89;66.38
76819;BME280;65772;51.096;17.006;2022-12-10T07:42:40;99374.42;;;3.86;66.17
76819;BME280;65772;51.096;17.006;2022-12-10T07:45:12;99373.11;;;3.82;66.17
76819;BME280;65772;51.096;17.006;2022-12-10T07:47:42;99373.98;;;3.79;66.13
76819;BME280;65772;51.096;17.006;2022-12-10T07:50:13;99379.29;;;3.77;66.04
76819;BME280;65772;51.096;17.006;2022-12-10T07:52:43;99387.14;;;3.75;66.10
76819;BME280;65772;51.096;17.006;2022-12-10T07:55:13;99388.09;;;3.74;66.17
76819;BME280;65772;51.096;17.006;2022-12-10T07:57:44;99390.36;;;3.71;66.21
76819;BME280;65772;51.096;17.006;2022-12-10T08:00:16;99400.08;;;3.69;66.51
76819;BME280;65772;51.096;17.006;2022-12-10T08:02:46;99399.14;;;3.66;66.28
76819;BME280;65772;51.096;17.006;2022-12-10T08:05:17;99398.36;;;3.64;66.30
76819;BME280;65772;51.096;17.006;2022-12-10T08:07:47;99407.91;;;3.63;66.34
76819;BME280;65772;51.096;17.006;2022-12-10T08:10:18;99408.70;;;3.61;66.32
76819;BME280;65772;51.096;17.006;2022-12-10T08:12:48;99410.70;;;3.60;66.42
76819;BME280;65772;51.096;17.006;2022-12-10T08:15:19;99405.95;;;3.68;66.32
76819;BME280;65772;51.096;17.006;2022-12-10T08:17:50;99409.35;;;3.73;66.35
76819;BME280;65772;51.096;17.006;2022-12-10T08:20:20;99408.48;;;3.77;66.14
76819;BME280;65772;51.096;17.006;2022-12-10T08:22:52;99407.47;;;3.80;66.49
76819;BME280;65772;51.096;17.006;2022-12-10T08:25:22;99407.02;;;3.82;66.34
76819;BME280;65772;51.096;17.006;2022-12-10T08:27:53;99408.98;;;3.84;66.20
76819;BME280;65772;51.096;17.006;2022-12-10T08:30:23;99405.11;;;3.85;66.21
76819;BME280;65772;51.096;17.006;2022-12-10T08:32:53;99410.54;;;3.86;66.32
76819;BME280;65772;51.096;17.006;2022-12-10T08:35:24;99409.58;;;3.87;66.25
76819;BME280;65772;51.096;17.006;2022-12-10T08:37:54;99411.77;;;3.86;66.22
76819;BME280;65772;51.096;17.006;2022-12-10T08:40:25;99414.73;;;3.85;66.20
76819;BME280;65772;51.096;17.006;2022-12-10T08:42:55;99414.70;;;3.84;66.08
76819;BME280;65772;51.096;17.006;2022-12-10T08:45:26;99417.33;;;3.83;65.99
76819;BME280;65772;51.096;17.006;2022-12-10T08:47:56;99420.48;;;3.81;66.00
76819;BME280;65772;51.096;17.006;2022-12-10T08:50:27;99421.54;;;3.78;66.04
76819;BME280;65772;51.096;17.006;2022-12-10T08:52:58;99427.05;;;3.76;65.94
76819;BME280;65772;51.096;17.006;2022-12-10T08:55:29;99422.58;;;3.75;65.95
76819;BME280;65772;51.096;17.006;2022-12-10T08:58:00;99420.80;;;3.73;65.90
76819;BME280;65772;51.096;17.006;2022-12-10T09:00:30;99420.55;;;3.70;65.95
76819;BME280;65772;51.096;17.006;2022-12-10T09:03:01;99417.76;;;3.68;66.18
76819;BME280;65772;51.096;17.006;2022-12-10T09:05:35;99425.06;;;3.65;65.98
76819;BME280;65772;51.096;17.006;2022-12-10T09:08:06;99422.42;;;3.63;66.07
76819;BME280;65772;51.096;17.006;2022-12-10T09:10:38;99423.34;;;3.61;66.23
76819;BME280;65772;51.096;17.006;2022-12-10T09:13:09;99421.28;;;3.59;66.17
76819;BME280;65772;51.096;17.006;2022-12-10T09:15:39;99424.42;;;3.58;66.37
76819;BME280;65772;51.096;17.006;2022-12-10T09:18:10;99425.92;;;3.57;66.31
76819;BME280;65772;51.096;17.006;2022-12-10T09:20:40;99424.55;;;3.57;66.25
76819;BME280;65772;51.096;17.006;2022-12-10T09:23:11;99421.45;;;3.59;66.30
76819;BME280;65772;51.096;17.006;2022-12-10T09:25:41;99420.45;;;3.67;66.52
76819;BME280;65772;51.096;17.006;2022-12-10T09:28:12;99423.26;;;3.75;66.39
76819;BME280;65772;51.096;17.006;2022-12-10T09:30:42;99422.48;;;3.81;66.41
76819;BME280;65772;51.096;17.006;2022-12-10T09:33:13;99419.41;;;3.88;66.49
76819;BME280;65772;51.096;17.006;2022-12-10T09:35:44;99419.77;;;3.92;66.49
76819;BME280;65772;51.096;17.006;2022-12-10T09:38:14;99422.23;;;3.95;66.53
76819;BME280;65772;51.096;17.006;2022-12-10T09:40:50;99418.77;;;3.96;66.62
76819;BME280;65772;51.096;17.006;2022-12-10T09:43:32;99416.63;;;3.98;66.42
76819;BME280;65772;51.096;17.006;2022-12-10T09:46:13;99421.94;;;4.00;66.29
76819;BME280;65772;51.096;17.006;2022-12-10T09:48:58;99417.36;;;3.99;66.29
76819;BME280;65772;51.096;17.006;2022-12-10T09:51:34;99416.02;;;3.99;66.20
76819;BME280;65772;51.096;17.006;2022-12-10T09:54:15;99412.90;;;3.98;66.06
76819;BME280;65772;51.096;17.006;2022-12-10T09:56:49;99409.38;;;3.98;66.40
76819;BME280;65772;51.096;17.006;2022-12-10T09:59:23;99409.23;;;4.03;66.57
76819;BME280;65772;51.096;17.006;2022-12-10T10:02:03;99404.73;;;4.09;66.61
76819;BME280;65772;51.096;17.006;2022-12-10T10:04:42;99400.98;;;4.12;66.84
76819;BME280;65772;51.096;17.006;2022-12-10T10:07:19;99394.29;;;4.14;66.44
76819;BME280;65772;51.096;17.006;2022-12-10T10:09:51;99387.18;;;4.14;66.29
76819;BME280;65772;51.096;17.006;2022-12-10T10:12:28;99381.95;;;4.14;66.25
76819;BME280;65772;51.096;17.006;2022-12-10T10:14:59;99383.81;;;4.13;66.06
76819;BME280;65772;51.096;17.006;2022-12-10T10:17:37;99381.55;;;4.12;66.07
76819;BME280;65772;51.096;17.006;2022-12-10T10:20:09;99380.58;;;4.09;65.97
76819;BME280;65772;51.096;17.006;2022-12-10T10:22:40;99380.52;;;4.08;65.79
76819;BME280;65772;51.096;17.006;2022-12-10T10:25:15;99377.77;;;4.06;65.75
76819;BME280;65772;51.096;17.006;2022-12-10T10:27:47;99376.55;;;4.05;66.01
76819;BME280;65772;51.096;17.006;2022-12-10T10:30:20;99376.90;;;4.05;66.26
76819;BME280;65772;51.096;17.006;2022-12-10T10:32:53;99373.84;;;4.05;66.26
76819;BME280;65772;51.096;17.006;2022-12-10T10:35:29;99370.30;;;4.09;66.44
76819;BME280;65772;51.096;17.006;2022-12-10T10:38:05;99372.04;;;4.19;66.52
76819;BME280;65772;51.096;17.006;2022-12-10T10:40:41;99373.80;;;4.25;66.44
76819;BME280;65772;51.096;17.006;2022-12-10T10:43:18;99369.59;;;4.30;66.17
76819;BME280;65772;51.096;17.006;2022-12-10T10:45:56;99371.61;;;4.34;66.18
76819;BME280;65772;51.096;17.006;2022-12-10T10:48:29;99371.06;;;4.38;65.94
76819;BME280;65772;51.096;17.006;2022-12-10T10:51:13;99362.45;;;4.38;65.55
76819;BME280;65772;51.096;17.006;2022-12-10T10:53:46;99360.29;;;4.38;65.72
76819;BME280;65772;51.096;17.006;2022-12-10T10:56:21;99361.77;;;4.37;65.65
76819;BME280;65772;51.096;17.006;2022-12-10T10:58:56;99360.39;;;4.37;65.44
76819;BME280;65772;51.096;17.006;2022-12-10T11:01:45;99359.98;;;4.35;65.45
76819;BME280;65772;51.096;17.006;2022-12-10T11:04:18;99362.80;;;4.34;65.27
76819;BME280;65772;51.096;17.006;2022-12-10T11:06:52;99366.43;;;4.31;65.21
76819;BME280;65772;51.096;17.006;2022-12-10T11:09:29;99370.62;;;4.30;65.31
76819;BME280;65772;51.096;17.006;2022-12-10T11:12:03;99374.65;;;4.30;65.31
76819;BME280;65772;51.096;17.006;2022-12-10T11:14:39;99379.96;;;4.27;64.98
76819;BME280;65772;51.096;17.006;2022-12-10T11:17:24;99383.06;;;4.24;65.28
76819;BME280;65772;51.096;17.006;2022-12-10T11:19:58;99388.11;;;4.20;65.26
76819;BME280;65772;51.096;17.006;2022-12-10T11:22:32;99386.38;;;4.19;65.14
76819;BME280;65772;51.096;17.006;2022-12-10T11:25:05;99387.90;;;4.19;65.31
76819;BME280;65772;51.096;17.006;2022-12-10T11:27:44;99388.06;;;4.19;65.38
76819;BME280;65772;51.096;17.006;2022-12-10T11:30:20;99388.20;;;4.18;65.43
76819;BME280;65772;51.096;17.006;2022-12-10T11:33:03;99389.55;;;4.18;65.29
76819;BME280;65772;51.096;17.006;2022-12-10T11:35:54;99389.46;;;4.16;65.27
76819;BME280;65772;51.096;17.006;2022-12-10T11:38:29;99389.24;;;4.14;65.08
76819;BME280;65772;51.096;17.006;2022-12-10T11:41:06;99393.36;;;4.11;65.24
76819;BME280;65772;51.096;17.006;2022-12-10T11:43:52;99393.92;;;4.09;65.23
76819;BME280;65772;51.096;17.006;2022-12-10T11:46:58;99396.36;;;4.06;65.18
76819;BME280;65772;51.096;17.006;2022-12-10T11:49:41;99393.64;;;4.06;65.28
76819;BME280;65772;51.096;17.006;2022-12-10T11:52:20;99390.92;;;4.06;65.25
76819;BME280;65772;51.096;17.006;2022-12-10T11:55:02;99390.27;;;4.06;65.19
76819;BME280;65772;51.096;17.006;2022-12-10T11:57:47;99388.39;;;4.06;65.24
76819;BME280;65772;51.096;17.006;2022-12-10T12:00:24;99392.23;;;4.04;65.16
76819;BME280;65772;51.096;17.006;2022-12-10T12:03:16;99400.50;;;4.05;65.30
76819;BME280;65772;51.096;17.006;2022-12-10T12:06:04;99402.70;;;4.13;64.99
76819;BME280;65772;51.096;17.006;2022-12-10T12:08:46;99396.44;;;4.17;65.11
76819;BME280;65772;51.096;17.006;2022-12-10T12:11:29;99394.41;;;4.21;65.15
76819;BME280;65772;51.096;17.006;2022-12-10T12:14:08;99389.85;;;4.26;64.82
76819;BME280;65772;51.096;17.006;2022-12-10T12:16:46;99384.89;;;4.28;64.86
76819;BME280;65772;51.096;17.006;2022-12-10T12:19:22;99389.40;;;4.31;64.88
76819;BME280;65772;51.096;17.006;2022-12-10T12:21:55;99392.98;;;4.32;64.71
76819;BME280;65772;51.096;17.006;2022-12-10T12:24:34;99393.36;;;4.33;64.75
76819;BME280;65772;51.096;17.006;2022-12-10T12:27:12;99391.17;;;4.33;64.86
76819;BME280;65772;51.096;17.006;2022-12-10T12:29:50;99388.98;;;4.33;64.56
76819;BME280;65772;51.096;17.006;2022-12-10T12:32:25;99381.17;;;4.32;64.69
76819;BME280;65772;51.096;17.006;2022-12-10T12:35:00;99385.44;;;4.33;65.07
76819;BME280;65772;51.096;17.006;2022-12-10T12:37:38;99382.21;;;4.33;64.86
76819;BME280;65772;51.096;17.006;2022-12-10T12:40:15;99379.17;;;4.33;65.00
76819;BME280;65772;51.096;17.006;2022-12-10T12:42:56;99378.47;;;4.32;65.01
76819;BME280;65772;51.096;17.006;2022-12-10T12:45:34;99377.29;;;4.32;64.81
76819;BME280;65772;51.096;17.006;2022-12-10T12:48:14;99380.25;;;4.30;64.62
76819;BME280;65772;51.096;17.006;2022-12-10T12:50:49;99380.00;;;4.28;65.12
76819;BME280;65772;51.096;17.006;2022-12-10T12:53:23;99384.05;;;4.28;64.92
76819;BME280;65772;51.096;17.006;2022-12-10T12:56:05;99383.53;;;4.28;65.16
76819;BME280;65772;51.096;17.006;2022-12-10T12:58:44;99378.46;;;4.28;65.04
76819;BME280;65772;51.096;17.006;2022-12-10T13:01:22;99372.25;;;4.25;64.86
76819;BME280;65772;51.096;17.006;2022-12-10T13:03:57;99369.59;;;4.21;64.94
76819;BME280;65772;51.096;17.006;2022-12-10T13:06:29;99374.13;;;4.21;64.88
76819;BME280;65772;51.096;17.006;2022-12-10T13:09:15;99375.37;;;4.18;64.92
76819;BME280;65772;51.096;17.006;2022-12-10T13:12:15;99369.43;;;4.13;64.97
76819;BME280;65772;51.096;17.006;2022-12-10T13:15:00;99372.30;;;4.13;65.05
76819;BME280;65772;51.096;17.006;2022-12-10T13:17:33;99374.02;;;4.13;64.87
76819;BME280;65772;51.096;17.006;2022-12-10T13:20:32;99372.83;;;4.14;65.14
76819;BME280;65772;51.096;17.006;2022-12-10T13:23:04;99378.75;;;4.14;64.92
76819;BME280;65772;51.096;17.006;2022-12-10T13:25:56;99385.42;;;4.16;65.11
76819;BME280;65772;51.096;17.006;2022-12-10T13:28:37;99388.36;;;4.26;65.13
76819;BME280;65772;51.096;17.006;2022-12-10T13:31:35;99390.34;;;4.34;65.43
76819;BME280;65772;51.096;17.006;2022-12-10T13:34:22;99392.39;;;4.38;64.91
76819;BME280;65772;51.096;17.006;2022-12-10T13:37:13;99389.63;;;4.42;64.81